Nearby METAR Reports

 

KMRB - Martinsburg, West Virginia, USA
Distance from station: NNW 9mi, 14km
Updated: 03/25/2019 8:53pm
Overcast
Overcast
 Wind from N
Wind: N 13 mph , 20 km/h
Temperature: 39°F , 4°C
Wind Chill: 31°F , -1°C
Dew Point: 37°F , 3°C
Humidity: 93%
Barometer: 30.06 inHg , 1017.9 hPa
Clouds: Overcast
Visibility: 10 miles , 16 km
Cloud details: Partly cloudy 4000 ft
Overcast 6000 ft
2019/03/26 00:53 KMRB 260053Z 36011KT 10SM SCT040 OVC060 04/03 A3006 RMK AO2 SLP182 T00440028
KOKV - Winchester Rgnl, Virginia, USA
Distance from station: SW 17mi, 28km
Updated: 03/25/2019 9:35pm
Overcast
Overcast
 Wind from NNE
Wind: NNE 6 mph , 9 km/h
Temperature: 39°F , 4°C
Wind Chill: 35°F , 2°C
Dew Point: 36°F , 2°C
Humidity: 87%
Barometer: 30.08 inHg , 1018.6 hPa
Clouds: Overcast
Visibility: 10 miles , 16 km
Cloud details: Mostly cloudy 1100 ft
Overcast 2200 ft
2019/03/26 01:35 KOKV 260135Z AUTO 03005KT 10SM BKN011 OVC022 04/02 A3008 RMK AO2
 
KJYO - Leesburg/Godfrey, Virginia, USA
Distance from station: SE 23mi, 38km
Updated: 03/25/2019 9:35pm
Overcast
Overcast
 Wind from NNE
Wind: NNE 8 mph , 13 km/h, Gust: 16 mph , 26 km/h
Temperature: 41°F , 5°C
Wind Chill: 36°F , 2°C
Dew Point: 41°F , 5°C
Humidity: 100%
Barometer: 30.09 inHg , 1019 hPa
Clouds: Overcast
Visibility: 10 miles , 16 km
Cloud details: Overcast 800 ft
2019/03/26 01:35 KJYO 260135Z AUTO 03007G14KT 10SM OVC008 05/05 A3009 RMK AO2
KFDK - Frederick, Maryland, USA
Distance from station: ENE 30mi, 48km
Updated: 03/25/2019 9:45pm
Overcast
Overcast
 Wind from NNE
Wind: NNE 9 mph , 15 km/h, Gust: 16 mph , 26 km/h
Temperature: 41°F , 5°C
Wind Chill: 35°F , 2°C
Dew Point: 39°F , 4°C
Humidity: 93%
Barometer: 30.12 inHg , 1020 hPa
Clouds: Overcast
Visibility: 10 miles , 16 km
Cloud details: Mostly cloudy 900 ft
Overcast 1500 ft
2019/03/26 01:45 KFDK 260145Z AUTO 03008G14KT 10SM BKN009 OVC015 05/04 A3012 RMK AO2
 
KHGR - Hagerstown, Maryland, USA
Distance from station: NNE 30mi, 48km
Updated: 03/25/2019 8:53pm
Overcast
Overcast
 Wind from N
Wind: N 14 mph , 22 km/h
Temperature: 39°F , 4°C
Wind Chill: 31°F , -1°C
Dew Point: 36°F , 2°C
Humidity: 87%
Barometer: 30.07 inHg , 1018.3 hPa
Clouds: Overcast
Visibility: 10 miles , 16 km
Cloud details: Overcast 4800 ft
2019/03/26 00:53 KHGR 260053Z 01012KT 10SM OVC048 04/02 A3007 RMK AO2 SLP197 T00390017
KIAD - Wash Dc/Dulles, Virginia, USA
Distance from station: SE 34mi, 55km
Updated: 03/25/2019 8:52pm
Overcast
Overcast
 Wind from N
Wind: N 12 mph , 19 km/h
Temperature: 45°F , 7°C
Wind Chill: 39°F , 4°C
Dew Point: 39°F , 4°C
Humidity: 81%
Barometer: 30.05 inHg , 1017.6 hPa
Clouds: Overcast
Visibility: 10 miles , 16 km
Cloud details: Overcast 1400 ft
2019/03/26 00:52 KIAD 260052Z 01010KT 10SM OVC014 07/04 A3005 RMK AO2 SLP174 T00720039
 
KRSP - Nsf Thurmont, Maryland, USA
Distance from station: NE 34mi, 55km
Updated: 03/25/2019 8:54pm
Fog, Overcast
Fog, Overcast
 Wind from varies
Wind: varies 7 mph , 11 km/h
Temperature: 34°F , 1°C
Wind Chill: 28°F , -2°C
Dew Point: 34°F , 1°C
Humidity: 100%
Barometer: 30.00 inHg , 1015.9 hPa
Summary: Fog
Clouds: Overcast
Visibility: 1/2 mile , 0.8 km
Cloud details: Overcast 200 ft
2019/03/26 00:54 KRSP 260054Z AUTO VRB06KT 1/2SM FG VV002 01/01 A3000 RMK AO2 SLP175 T00110011 $
KGAI - Gaithersburg, Maryland, USA
Distance from station: E 40mi, 64km
Updated: 03/25/2019 8:56pm
Overcast
Overcast
 Wind from NNE
Wind: NNE 6 mph , 9 km/h
Temperature: 43°F , 6°C
Wind Chill: 39°F , 4°C
Dew Point: 39°F , 4°C
Humidity: 87%
Barometer: 30.06 inHg , 1017.9 hPa
Clouds: Overcast
Visibility: 10 miles , 16 km
Cloud details: Overcast 900 ft
2019/03/26 00:56 KGAI 260056Z AUTO 03005KT 10SM OVC009 06/04 A3006 RMK AO2 SLP213 T00560039
 
KRYT - Fountain Dale, Pennsylvania, USA
Distance from station: NE 40mi, 64km
Updated: 11/13/2017 7:53am
NOT Current
Mist, Overcast
Mist, Overcast
 Wind from calm
Wind: Calm
Temperature: 37°F , 3°C
Dew Point: 34°F , 1°C
Humidity: 87%
Barometer: 30.31 inHg , 1026.4 hPa
Summary: Mist
Clouds: Overcast
Visibility: 5 miles , 8 km
Cloud details: Overcast 700 ft
2017/11/13 12:53 KRYT 131253Z AUTO 00000KT 5SM BR OVC007 03/01 A3031 RMK AO2 SLP275 T00280011 TSNO $
KHEF - Manassas Muni, Virginia, USA
Distance from station: SSE 44mi, 72km
Updated: 03/25/2019 8:56pm
Overcast
Overcast
 Wind from N
Wind: N 14 mph , 22 km/h
Temperature: 48°F , 9°C
Wind Chill: 42°F , 6°C
Dew Point: 43°F , 6°C
Humidity: 82%
Barometer: 30.04 inHg , 1017.3 hPa
Clouds: Overcast
Visibility: 10 miles , 16 km
Cloud details: Few Clouds 1500 ft
Overcast 6500 ft
2019/03/26 00:56 KHEF 260056Z 01012KT 10SM FEW015 OVC065 09/06 A3004 RMK AO2 SLP184 T00890061 PNO $
 
KHWY - Warrenton, Virginia, USA
Distance from station: SSE 50mi, 80km
Updated: 03/25/2019 9:35pm
Overcast
Overcast
 Wind from N
Wind: N 9 mph , 15 km/h
Temperature: 48°F , 9°C
Wind Chill: 44°F , 7°C
Dew Point: 41°F , 5°C
Humidity: 76%
Barometer: 30.04 inHg , 1017.3 hPa
Clouds: Overcast
Visibility: 10 miles , 16 km
Cloud details: Overcast 1000 ft
2019/03/26 01:35 KHWY 260135Z AUTO 01008KT 10SM OVC010 09/05 A3004 RMK AO2 T00850049